Time;durP1;ratioP1;P1;durP2;ratioP2;P2;SDS_P1;SDS_P2;PMS_P1;PMS_P2;Temp;Humidity;BMP_temperature;BMP_pressure;BME280_temperature;BME280_humidity;BME280_pressure;Samples;Min_cycle;Max_cycle;Signal;HPM_P1;HPM_P2
2022/07/14 00:01:25;;;;;;;8.60;2.17;;;;;;;;;;4934264;28;20730;-65
2022/07/14 00:03:51;;;;;;;9.40;2.00;;;;;;;;;;4933459;28;20837;-66
2022/07/14 00:06:16;;;;;;;7.22;1.77;;;;;;;;;;4933560;28;20039;-65
2022/07/14 00:08:43;;;;;;;5.25;1.50;;;;;;;;;;4933895;28;20031;-65
2022/07/14 00:11:09;;;;;;;7.70;1.75;;;;;;;;;;4942826;28;20042;-65
2022/07/14 00:13:34;;;;;;;7.13;1.90;;;;;;;;;;4933141;28;20205;-65
2022/07/14 00:16:02;;;;;;;8.88;1.95;;;;;;;;;;4933753;28;20038;-65
2022/07/14 00:18:28;;;;;;;7.75;1.80;;;;;;;;;;4933633;28;20041;-65
2022/07/14 00:20:54;;;;;;;13.68;1.98;;;;;;;;;;4941552;28;20961;-65
2022/07/14 00:23:24;;;;;;;7.72;1.83;;;;;;;;;;4933646;28;20176;-65
2022/07/14 00:25:49;;;;;;;6.28;2.00;;;;;;;;;;4931539;28;20042;-65
2022/07/14 00:28:14;;;;;;;9.88;2.20;;;;;;;;;;4933772;28;20995;-65
2022/07/14 00:30:40;;;;;;;9.15;2.00;;;;;;;;;;4933391;28;20038;-65
2022/07/14 00:33:05;;;;;;;9.07;2.10;;;;;;;;;;4942253;28;22430;-65
2022/07/14 00:35:32;;;;;;;5.10;1.90;;;;;;;;;;4932910;28;20129;-65
2022/07/14 00:37:58;;;;;;;11.43;1.90;;;;;;;;;;4948205;28;20049;-65
2022/07/14 00:40:23;;;;;;;5.30;1.40;;;;;;;;;;4933016;28;20034;-65
2022/07/14 00:42:49;;;;;;;6.90;1.70;;;;;;;;;;4948236;28;20113;-65
2022/07/14 00:45:21;;;;;;;7.28;1.95;;;;;;;;;;4946999;28;20027;-65
2022/07/14 00:47:47;;;;;;;5.63;2.33;;;;;;;;;;4933305;28;20128;-65
2022/07/14 00:50:14;;;;;;;7.20;1.90;;;;;;;;;;4933140;28;20045;-65
2022/07/14 00:52:40;;;;;;;7.70;1.80;;;;;;;;;;4933149;28;20206;-66
2022/07/14 00:55:08;;;;;;;7.65;2.05;;;;;;;;;;4933469;28;20137;-65
2022/07/14 00:57:34;;;;;;;5.68;1.90;;;;;;;;;;4931713;28;20190;-65
2022/07/14 00:59:59;;;;;;;5.80;2.00;;;;;;;;;;4932856;28;20030;-65
2022/07/14 01:02:24;;;;;;;5.82;2.00;;;;;;;;;;4932612;28;20034;-65
2022/07/14 01:04:50;;;;;;;9.07;1.80;;;;;;;;;;4932892;28;20077;-67
2022/07/14 01:07:16;;;;;;;9.20;2.30;;;;;;;;;;4932638;28;20046;-64
2022/07/14 01:09:42;;;;;;;7.15;2.03;;;;;;;;;;4933391;28;20173;-67
2022/07/14 01:12:10;;;;;;;6.72;1.90;;;;;;;;;;4934587;28;20197;-64
2022/07/14 01:14:36;;;;;;;4.95;1.95;;;;;;;;;;4930467;28;20035;-65
2022/07/14 01:17:02;;;;;;;8.65;1.88;;;;;;;;;;4933528;28;20118;-64
2022/07/14 01:19:27;;;;;;;7.22;1.83;;;;;;;;;;4945934;28;20110;-65
2022/07/14 01:21:56;;;;;;;10.52;2.20;;;;;;;;;;4932828;28;20795;-64
2022/07/14 01:24:22;;;;;;;5.43;1.90;;;;;;;;;;4946071;28;20795;-64
2022/07/14 01:26:47;;;;;;;6.30;2.05;;;;;;;;;;4932879;28;20035;-67
2022/07/14 01:29:13;;;;;;;10.07;2.00;;;;;;;;;;4932462;28;20038;-64
2022/07/14 01:31:38;;;;;;;6.53;2.10;;;;;;;;;;4941672;28;20743;-67
2022/07/14 01:34:09;;;;;;;5.30;1.77;;;;;;;;;;4926712;28;20035;-66
2022/07/14 01:36:34;;;;;;;5.43;2.00;;;;;;;;;;4946157;28;20840;-66
2022/07/14 01:39:00;;;;;;;7.70;2.20;;;;;;;;;;4937241;28;20045;-67
2022/07/14 01:41:26;;;;;;;6.60;2.50;;;;;;;;;;4932022;28;20039;-67
2022/07/14 01:43:51;;;;;;;6.50;2.17;;;;;;;;;;4933233;28;20818;-67
2022/07/14 01:46:17;;;;;;;5.65;2.03;;;;;;;;;;4932028;28;20038;-66
2022/07/14 01:48:42;;;;;;;7.80;2.13;;;;;;;;;;4932543;28;20851;-66
2022/07/14 01:51:10;;;;;;;5.20;1.90;;;;;;;;;;4934545;28;20048;-66
2022/07/14 01:53:38;;;;;;;9.52;2.00;;;;;;;;;;4932760;28;20811;-66
2022/07/14 01:56:03;;;;;;;7.03;2.13;;;;;;;;;;4932697;28;20130;-66
2022/07/14 01:58:29;;;;;;;7.03;2.30;;;;;;;;;;4940962;28;20031;-66
2022/07/14 02:03:39;;;;;;;7.38;2.70;;;;;;;;;;4932383;28;20090;-66
2022/07/14 02:06:07;;;;;;;8.45;2.33;;;;;;;;;;4946425;28;20150;-65
2022/07/14 02:08:35;;;;;;;6.80;1.95;;;;;;;;;;4938960;28;20038;-65
2022/07/14 02:13:48;;;;;;;7.88;2.30;;;;;;;;;;4942661;28;20138;-65
2022/07/14 02:16:16;;;;;;;5.72;2.00;;;;;;;;;;4936421;28;20050;-65
2022/07/14 02:18:41;;;;;;;6.90;2.47;;;;;;;;;;4950670;28;20042;-66
2022/07/14 02:21:10;;;;;;;7.57;2.10;;;;;;;;;;4935289;28;20814;-65
2022/07/14 02:23:35;;;;;;;7.80;2.10;;;;;;;;;;4936145;28;20077;-65
2022/07/14 02:26:00;;;;;;;7.88;2.40;;;;;;;;;;4936176;28;20039;-65
2022/07/14 02:28:30;;;;;;;5.95;2.00;;;;;;;;;;4949721;28;20066;-66
2022/07/14 02:30:58;;;;;;;8.40;2.58;;;;;;;;;;4934490;28;20038;-66
2022/07/14 02:33:28;;;;;;;4.13;2.00;;;;;;;;;;4940523;28;20106;-66
2022/07/14 02:35:56;;;;;;;4.72;1.90;;;;;;;;;;4935657;28;20046;-66
2022/07/14 02:38:22;;;;;;;8.60;2.60;;;;;;;;;;4935668;28;20042;-65
2022/07/14 02:40:47;;;;;;;5.30;2.03;;;;;;;;;;4935471;28;20101;-65
2022/07/14 02:43:17;;;;;;;6.45;2.10;;;;;;;;;;4938924;28;20046;-66
2022/07/14 02:45:44;;;;;;;4.93;1.88;;;;;;;;;;4935872;28;20045;-66
2022/07/14 02:48:10;;;;;;;9.75;2.72;;;;;;;;;;4949902;28;20147;-65
2022/07/14 02:50:40;;;;;;;5.03;2.30;;;;;;;;;;4935024;28;20174;-66
2022/07/14 02:53:06;;;;;;;8.25;2.38;;;;;;;;;;4935379;28;20053;-66
2022/07/14 02:55:34;;;;;;;5.25;2.35;;;;;;;;;;4935876;28;20038;-66
2022/07/14 02:57:59;;;;;;;6.00;2.30;;;;;;;;;;4935898;28;20062;-66
2022/07/14 03:00:25;;;;;;;5.03;2.15;;;;;;;;;;4935123;28;20034;-66
2022/07/14 03:02:50;;;;;;;9.75;2.42;;;;;;;;;;4950124;28;20046;-66
2022/07/14 03:05:16;;;;;;;7.03;2.47;;;;;;;;;;4923281;28;20846;-67
2022/07/14 03:07:41;;;;;;;7.85;2.40;;;;;;;;;;4934655;28;20054;-66
2022/07/14 03:10:07;;;;;;;7.88;2.60;;;;;;;;;;4934835;28;20994;-66
2022/07/14 03:12:32;;;;;;;7.07;2.47;;;;;;;;;;4939786;28;20037;-67
2022/07/14 03:15:00;;;;;;;5.13;2.22;;;;;;;;;;4934522;28;20043;-65
2022/07/14 03:17:25;;;;;;;8.20;2.58;;;;;;;;;;4934476;28;20114;-66
2022/07/14 03:19:51;;;;;;;5.45;2.30;;;;;;;;;;4933804;28;20118;-65
2022/07/14 03:22:16;;;;;;;7.68;2.53;;;;;;;;;;4934760;28;20031;-65
2022/07/14 03:24:41;;;;;;;6.68;2.60;;;;;;;;;;4939822;28;20047;-65
2022/07/14 03:27:08;;;;;;;8.10;2.63;;;;;;;;;;4934703;28;20045;-65
2022/07/14 03:29:33;;;;;;;7.80;2.60;;;;;;;;;;4947972;28;20034;-66
2022/07/14 03:32:03;;;;;;;5.50;3.00;;;;;;;;;;4934664;28;20610;-65
2022/07/14 03:34:29;;;;;;;8.32;2.60;;;;;;;;;;4933847;28;21279;-65
2022/07/14 03:36:56;;;;;;;8.15;2.85;;;;;;;;;;4932086;28;20031;-65
2022/07/14 03:39:21;;;;;;;7.25;2.78;;;;;;;;;;4932707;28;20914;-65
2022/07/14 03:41:46;;;;;;;8.00;2.90;;;;;;;;;;4948672;28;20142;-66
2022/07/14 03:44:11;;;;;;;9.75;3.10;;;;;;;;;;4947791;28;20050;-65
2022/07/14 03:46:38;;;;;;;6.40;2.85;;;;;;;;;;4933934;28;20035;-65
2022/07/14 03:49:03;;;;;;;6.68;2.78;;;;;;;;;;4933862;28;20057;-65
2022/07/14 03:51:33;;;;;;;10.63;3.20;;;;;;;;;;4931846;28;20710;-65
2022/07/14 03:54:00;;;;;;;8.38;2.92;;;;;;;;;;4933873;28;20129;-66
2022/07/14 03:56:25;;;;;;;8.10;3.00;;;;;;;;;;4931164;28;20952;-65
2022/07/14 03:58:51;;;;;;;9.43;3.60;;;;;;;;;;4940348;28;20042;-65
2022/07/14 04:01:16;;;;;;;7.75;3.90;;;;;;;;;;4933473;28;20144;-66
2022/07/14 04:03:42;;;;;;;9.65;4.05;;;;;;;;;;4941028;28;20053;-65
2022/07/14 04:06:07;;;;;;;9.32;3.35;;;;;;;;;;4933313;28;20043;-65
2022/07/14 04:08:33;;;;;;;9.00;3.65;;;;;;;;;;4933005;28;20129;-65
2022/07/14 04:10:59;;;;;;;8.75;3.75;;;;;;;;;;4933127;28;20716;-65
2022/07/14 04:13:24;;;;;;;8.25;3.42;;;;;;;;;;4930905;28;20035;-65
2022/07/14 04:15:50;;;;;;;10.23;3.45;;;;;;;;;;4931461;28;20153;-65
2022/07/14 04:18:17;;;;;;;6.13;3.10;;;;;;;;;;4929968;28;20038;-65
2022/07/14 04:20:49;;;;;;;7.10;2.95;;;;;;;;;;4934138;28;22524;-65
2022/07/14 04:23:16;;;;;;;6.75;2.70;;;;;;;;;;4930651;28;20058;-65
2022/07/14 04:25:41;;;;;;;7.85;3.50;;;;;;;;;;4935487;28;20464;-65
2022/07/14 04:28:06;;;;;;;7.28;3.45;;;;;;;;;;4930373;28;20031;-66
2022/07/14 04:30:32;;;;;;;8.20;3.00;;;;;;;;;;4944065;28;20035;-66
2022/07/14 04:32:57;;;;;;;10.05;3.60;;;;;;;;;;4931070;28;20111;-67
2022/07/14 04:35:23;;;;;;;9.55;3.60;;;;;;;;;;4929483;28;20181;-67
2022/07/14 04:37:49;;;;;;;6.90;3.33;;;;;;;;;;4930927;28;20042;-66
2022/07/14 04:40:16;;;;;;;7.50;3.63;;;;;;;;;;4930598;28;20141;-66
2022/07/14 04:42:41;;;;;;;8.10;3.60;;;;;;;;;;4930898;28;20113;-66
2022/07/14 04:45:07;;;;;;;7.30;3.30;;;;;;;;;;4931291;28;20080;-66
2022/07/14 04:47:32;;;;;;;8.98;3.40;;;;;;;;;;4930396;28;20339;-66
2022/07/14 04:52:46;;;;;;;5.72;2.78;;;;;;;;;;4930477;28;20350;-67
2022/07/14 04:55:13;;;;;;;8.25;2.40;;;;;;;;;;4929893;28;20035;-67
2022/07/14 04:57:39;;;;;;;7.15;1.98;;;;;;;;;;4929597;28;20047;-71
2022/07/14 05:00:05;;;;;;;7.43;2.17;;;;;;;;;;4933026;28;20247;-71
2022/07/14 05:02:30;;;;;;;8.20;1.75;;;;;;;;;;4935776;28;20467;-69
2022/07/14 05:04:55;;;;;;;6.75;1.70;;;;;;;;;;4931302;28;20042;-71
2022/07/14 05:07:20;;;;;;;7.10;1.60;;;;;;;;;;4931382;28;20034;-72
2022/07/14 05:09:46;;;;;;;4.18;1.45;;;;;;;;;;4945981;28;20142;-72
2022/07/14 05:12:13;;;;;;;8.10;1.50;;;;;;;;;;4929941;28;20653;-70
2022/07/14 05:14:38;;;;;;;5.53;1.42;;;;;;;;;;4944111;28;20136;-73
2022/07/14 05:17:04;;;;;;;9.43;1.60;;;;;;;;;;4953306;28;20042;-73
2022/07/14 05:19:29;;;;;;;7.03;1.60;;;;;;;;;;4945841;28;20042;-73
2022/07/14 05:21:55;;;;;;;5.15;1.40;;;;;;;;;;4955860;28;20039;-71
2022/07/14 05:24:20;;;;;;;8.40;1.45;;;;;;;;;;4950828;28;20065;-72
2022/07/14 05:26:46;;;;;;;3.97;1.02;;;;;;;;;;4958107;28;20069;-72
2022/07/14 05:29:15;;;;;;;5.68;1.13;;;;;;;;;;4960457;28;20089;-71
2022/07/14 05:31:41;;;;;;;7.20;1.25;;;;;;;;;;4953790;28;20031;-72
2022/07/14 05:34:06;;;;;;;6.68;1.60;;;;;;;;;;4942237;28;20034;-72
2022/07/14 05:36:32;;;;;;;6.72;1.60;;;;;;;;;;4965584;28;20452;-72
2022/07/14 05:38:57;;;;;;;8.25;1.50;;;;;;;;;;4949547;28;20073;-72
2022/07/14 05:41:23;;;;;;;4.82;1.35;;;;;;;;;;4955090;28;20478;-73
2022/07/14 05:43:49;;;;;;;8.45;1.60;;;;;;;;;;4935444;28;20045;-72
2022/07/14 05:46:15;;;;;;;7.82;1.30;;;;;;;;;;4944379;28;20066;-71
2022/07/14 05:48:40;;;;;;;6.65;1.20;;;;;;;;;;4935897;28;20257;-72
2022/07/14 05:51:07;;;;;;;8.07;1.15;;;;;;;;;;4939276;28;20038;-72
2022/07/14 05:53:33;;;;;;;5.78;1.52;;;;;;;;;;4939945;28;21015;-71
2022/07/14 05:56:01;;;;;;;5.40;1.15;;;;;;;;;;4940424;28;20045;-71
2022/07/14 05:58:26;;;;;;;7.30;1.38;;;;;;;;;;4938923;28;20858;-72
2022/07/14 06:00:52;;;;;;;4.80;1.08;;;;;;;;;;4941596;28;20042;-71
2022/07/14 06:03:18;;;;;;;8.45;1.40;;;;;;;;;;4938091;28;20038;-71
2022/07/14 06:05:44;;;;;;;8.23;1.30;;;;;;;;;;4942440;28;20060;-71
2022/07/14 06:08:12;;;;;;;5.70;1.10;;;;;;;;;;4943319;28;22285;-71
2022/07/14 06:10:37;;;;;;;7.35;1.38;;;;;;;;;;4936223;28;20053;-71
2022/07/14 06:13:03;;;;;;;6.55;1.20;;;;;;;;;;4942417;28;20878;-72
2022/07/14 06:15:30;;;;;;;5.88;1.00;;;;;;;;;;4936097;28;20038;-70
2022/07/14 06:17:56;;;;;;;3.58;0.82;;;;;;;;;;4963518;28;20129;-71
2022/07/14 06:20:21;;;;;;;6.30;1.17;;;;;;;;;;4939455;28;20039;-71
2022/07/14 06:22:52;;;;;;;7.95;1.10;;;;;;;;;;4935390;28;20920;-70
2022/07/14 06:25:17;;;;;;;6.53;1.23;;;;;;;;;;4948927;28;20046;-72
2022/07/14 06:27:44;;;;;;;6.28;1.13;;;;;;;;;;4936545;28;20101;-64
2022/07/14 06:30:10;;;;;;;4.88;1.10;;;;;;;;;;4934391;28;20058;-65
2022/07/14 06:32:36;;;;;;;7.05;1.13;;;;;;;;;;4931911;28;20314;-66
2022/07/14 06:35:02;;;;;;;3.92;1.13;;;;;;;;;;4931120;28;20035;-65
2022/07/14 06:37:30;;;;;;;5.75;1.02;;;;;;;;;;4946202;28;20528;-65
2022/07/14 06:39:55;;;;;;;5.00;1.05;;;;;;;;;;4931971;28;20617;-65
2022/07/14 06:42:21;;;;;;;4.47;1.00;;;;;;;;;;4932480;28;20439;-65
2022/07/14 06:44:46;;;;;;;4.10;0.88;;;;;;;;;;4930736;28;20043;-65
2022/07/14 06:47:12;;;;;;;6.90;1.08;;;;;;;;;;4931716;28;20492;-65
2022/07/14 06:49:37;;;;;;;8.48;1.00;;;;;;;;;;4944442;28;20132;-65
2022/07/14 06:52:05;;;;;;;4.72;0.98;;;;;;;;;;4935508;28;20034;-65
2022/07/14 06:54:30;;;;;;;6.07;1.23;;;;;;;;;;4932003;28;20780;-70
2022/07/14 06:56:55;;;;;;;8.07;1.40;;;;;;;;;;4970032;28;20042;-71
2022/07/14 06:59:22;;;;;;;5.75;1.05;;;;;;;;;;4960973;28;20076;-72
2022/07/14 07:01:48;;;;;;;4.03;1.10;;;;;;;;;;4968449;28;20424;-72
2022/07/14 07:04:15;;;;;;;4.60;0.93;;;;;;;;;;4959723;28;20054;-72
2022/07/14 07:06:44;;;;;;;6.57;0.90;;;;;;;;;;4946196;28;20825;-72
2022/07/14 07:09:13;;;;;;;7.40;1.00;;;;;;;;;;4944799;28;20035;-72
2022/07/14 07:11:40;;;;;;;5.03;1.05;;;;;;;;;;4955234;28;20066;-72
2022/07/14 07:14:05;;;;;;;5.72;1.00;;;;;;;;;;4967959;28;20152;-72
2022/07/14 07:16:33;;;;;;;7.93;1.50;;;;;;;;;;4937153;28;20635;-72
2022/07/14 07:18:59;;;;;;;4.38;0.93;;;;;;;;;;4952833;28;20038;-72
2022/07/14 07:21:24;;;;;;;6.88;1.10;;;;;;;;;;4937281;28;20439;-73
2022/07/14 07:23:54;;;;;;;6.80;1.10;;;;;;;;;;4932209;28;20043;-72
2022/07/14 07:26:22;;;;;;;5.90;1.33;;;;;;;;;;4937881;28;20562;-72
2022/07/14 07:28:48;;;;;;;7.28;1.50;;;;;;;;;;4937897;28;20546;-73
2022/07/14 07:31:13;;;;;;;5.78;1.27;;;;;;;;;;4933010;28;20039;-72
2022/07/14 07:33:39;;;;;;;5.80;0.90;;;;;;;;;;4931148;28;20038;-71
2022/07/14 07:36:07;;;;;;;4.28;0.95;;;;;;;;;;4957231;28;20045;-70
2022/07/14 07:38:34;;;;;;;3.03;0.57;;;;;;;;;;4944965;28;20723;-71
2022/07/14 07:41:02;;;;;;;4.28;1.00;;;;;;;;;;4952980;28;20905;-70
2022/07/14 07:43:29;;;;;;;6.68;0.90;;;;;;;;;;4944681;28;20598;-70
2022/07/14 07:45:55;;;;;;;5.85;1.30;;;;;;;;;;4951468;28;21015;-71
2022/07/14 07:48:23;;;;;;;2.65;0.85;;;;;;;;;;4946161;28;20045;-69
2022/07/14 07:50:51;;;;;;;4.60;0.98;;;;;;;;;;4946071;28;20057;-71
2022/07/14 07:53:19;;;;;;;4.57;0.90;;;;;;;;;;4933223;28;20037;-71
2022/07/14 07:55:47;;;;;;;5.22;1.05;;;;;;;;;;4934948;28;20038;-71
2022/07/14 07:58:12;;;;;;;3.88;0.80;;;;;;;;;;4934226;28;20038;-70
2022/07/14 08:00:38;;;;;;;5.38;1.20;;;;;;;;;;4933577;28;20116;-70
2022/07/14 08:03:04;;;;;;;6.10;1.13;;;;;;;;;;4932905;28;20431;-72
2022/07/14 08:05:29;;;;;;;5.38;0.88;;;;;;;;;;4942639;28;20042;-70
2022/07/14 08:07:57;;;;;;;7.00;0.90;;;;;;;;;;4938195;28;20062;-71
2022/07/14 08:10:25;;;;;;;6.13;0.90;;;;;;;;;;4932295;28;20039;-72
2022/07/14 08:12:56;;;;;;;5.53;0.70;;;;;;;;;;4937469;28;20514;-73
2022/07/14 08:15:21;;;;;;;4.22;1.00;;;;;;;;;;4930296;28;20046;-65
2022/07/14 08:17:46;;;;;;;4.72;1.10;;;;;;;;;;4930544;28;20816;-72
2022/07/14 08:20:12;;;;;;;4.15;0.90;;;;;;;;;;4933838;28;20038;-72
2022/07/14 08:22:39;;;;;;;5.50;1.25;;;;;;;;;;4947507;28;22496;-71
2022/07/14 08:25:10;;;;;;;3.20;0.80;;;;;;;;;;4933697;28;20046;-73
2022/07/14 08:27:35;;;;;;;4.32;1.00;;;;;;;;;;4931742;28;20058;-72
2022/07/14 08:30:04;;;;;;;4.53;1.10;;;;;;;;;;4932460;28;20035;-70
2022/07/14 08:32:56;;;;;;;4.38;0.93;;;;;;;;;;4949299;28;20128;-65
2022/07/14 08:35:24;;;;;;;3.45;0.70;;;;;;;;;;4936309;28;20077;-68
2022/07/14 08:37:51;;;;;;;4.05;0.90;;;;;;;;;;4952104;28;20102;-68
2022/07/14 08:40:20;;;;;;;3.97;0.75;;;;;;;;;;4936922;28;20043;-68
2022/07/14 08:42:50;;;;;;;5.18;0.80;;;;;;;;;;4953171;28;20039;-70
2022/07/14 08:45:18;;;;;;;3.30;0.57;;;;;;;;;;4948062;28;20065;-68
2022/07/14 08:47:46;;;;;;;3.72;0.80;;;;;;;;;;4943352;28;20724;-69
2022/07/14 08:50:13;;;;;;;6.18;1.02;;;;;;;;;;4952330;28;20125;-71
2022/07/14 08:52:41;;;;;;;4.22;1.05;;;;;;;;;;4939326;28;20042;-70
2022/07/14 08:55:07;;;;;;;4.05;0.80;;;;;;;;;;4933169;28;20133;-70
2022/07/14 08:57:33;;;;;;;5.85;0.85;;;;;;;;;;4932740;28;20035;-70
2022/07/14 09:00:01;;;;;;;4.07;0.68;;;;;;;;;;4930652;28;20043;-68
2022/07/14 09:02:26;;;;;;;4.30;0.90;;;;;;;;;;4930122;28;20038;-67
2022/07/14 09:04:56;;;;;;;5.28;1.13;;;;;;;;;;4929948;28;20050;-67
2022/07/14 09:07:33;;;;;;;3.85;0.65;;;;;;;;;;4929110;28;20104;-73
2022/07/14 09:10:09;;;;;;;5.63;0.80;;;;;;;;;;4935798;28;20593;-72
2022/07/14 09:12:35;;;;;;;4.35;0.73;;;;;;;;;;4929253;28;20045;-72
2022/07/14 09:17:55;;;;;;;3.97;0.80;;;;;;;;;;4929931;28;20054;-72
2022/07/14 09:20:21;;;;;;;4.55;0.80;;;;;;;;;;4931059;28;20050;-72
2022/07/14 09:22:55;;;;;;;3.60;1.05;;;;;;;;;;4924571;28;23485;-71
2022/07/14 09:25:24;;;;;;;4.13;0.63;;;;;;;;;;4929501;28;20074;-71
2022/07/14 09:27:49;;;;;;;2.78;0.80;;;;;;;;;;4936682;28;20035;-70
2022/07/14 09:30:15;;;;;;;3.95;0.80;;;;;;;;;;4930169;28;20050;-72
2022/07/14 09:32:41;;;;;;;4.70;0.80;;;;;;;;;;4927060;28;20035;-71
2022/07/14 09:35:08;;;;;;;6.05;1.15;;;;;;;;;;4929583;28;21028;-72
2022/07/14 09:37:37;;;;;;;2.97;0.70;;;;;;;;;;4928962;28;22353;-71
2022/07/14 09:40:06;;;;;;;3.78;0.68;;;;;;;;;;4929591;28;21015;-71
2022/07/14 09:42:48;;;;;;;4.45;0.90;;;;;;;;;;4927402;28;20031;-72
2022/07/14 09:45:14;;;;;;;3.70;0.90;;;;;;;;;;4930351;28;20130;-72
2022/07/14 09:47:53;;;;;;;5.28;0.95;;;;;;;;;;4943651;28;20153;-72
2022/07/14 09:50:54;;;;;;;5.05;0.90;;;;;;;;;;4929026;28;20930;-70
2022/07/14 09:53:35;;;;;;;3.17;0.68;;;;;;;;;;4928858;28;20099;-72
2022/07/14 09:56:01;;;;;;;4.97;1.10;;;;;;;;;;4929846;28;20034;-72
2022/07/14 09:58:40;;;;;;;8.30;1.05;;;;;;;;;;4939464;28;20121;-72
2022/07/14 10:01:09;;;;;;;2.92;0.75;;;;;;;;;;4929907;28;20566;-71
2022/07/14 10:03:36;;;;;;;6.18;0.90;;;;;;;;;;4929475;28;20058;-72
2022/07/14 10:06:03;;;;;;;6.80;1.13;;;;;;;;;;4930108;28;20035;-72
2022/07/14 10:08:29;;;;;;;5.10;1.10;;;;;;;;;;4929663;28;20030;-71
2022/07/14 10:10:56;;;;;;;5.53;0.90;;;;;;;;;;4936502;28;20146;-72
2022/07/14 10:13:24;;;;;;;4.28;1.00;;;;;;;;;;4936672;28;20815;-72
2022/07/14 10:15:56;;;;;;;4.22;0.90;;;;;;;;;;4936105;28;20054;-71
2022/07/14 10:18:23;;;;;;;4.55;1.00;;;;;;;;;;4933556;28;20800;-72
2022/07/14 10:20:50;;;;;;;3.53;0.70;;;;;;;;;;4936319;28;21381;-70
2022/07/14 10:23:17;;;;;;;6.10;1.00;;;;;;;;;;4924557;28;20034;-65
2022/07/14 10:25:46;;;;;;;4.03;1.02;;;;;;;;;;4928924;28;20035;-64
2022/07/14 10:28:15;;;;;;;4.15;0.82;;;;;;;;;;4924838;28;20717;-64
2022/07/14 10:31:00;;;;;;;3.75;0.85;;;;;;;;;;4930710;28;22426;-65
2022/07/14 10:33:44;;;;;;;5.65;0.75;;;;;;;;;;4920506;28;20593;-64
2022/07/14 10:36:22;;;;;;;7.47;1.25;;;;;;;;;;4931262;28;20118;-65
2022/07/14 10:39:06;;;;;;;6.32;1.17;;;;;;;;;;4932800;28;20188;-64
2022/07/14 10:41:48;;;;;;;4.97;0.85;;;;;;;;;;4932281;28;20201;-65
2022/07/14 10:44:17;;;;;;;3.83;0.95;;;;;;;;;;4931457;28;20340;-66
2022/07/14 10:46:43;;;;;;;4.50;0.90;;;;;;;;;;4929671;28;20169;-64
2022/07/14 10:49:10;;;;;;;3.95;0.75;;;;;;;;;;4931757;28;20061;-65
2022/07/14 10:51:43;;;;;;;2.72;0.80;;;;;;;;;;4931089;28;20038;-65
2022/07/14 10:54:11;;;;;;;4.03;0.77;;;;;;;;;;4930863;28;20034;-69
2022/07/14 10:56:37;;;;;;;3.97;0.75;;;;;;;;;;4929154;28;20895;-68
2022/07/14 10:59:21;;;;;;;3.95;0.82;;;;;;;;;;4931738;28;20813;-69
2022/07/14 11:02:20;;;;;;;4.57;0.70;;;;;;;;;;4929445;28;20038;-69
2022/07/14 11:05:03;;;;;;;3.72;0.90;;;;;;;;;;4934543;28;22049;-68
2022/07/14 11:07:35;;;;;;;3.58;0.90;;;;;;;;;;4929445;28;20418;-68
2022/07/14 11:10:01;;;;;;;3.35;0.85;;;;;;;;;;4945123;28;20038;-67
2022/07/14 11:12:27;;;;;;;5.97;0.98;;;;;;;;;;4944036;28;20065;-68
2022/07/14 11:14:53;;;;;;;4.35;0.70;;;;;;;;;;4932094;28;20358;-69
2022/07/14 11:17:35;;;;;;;5.00;0.80;;;;;;;;;;4921049;28;20078;-68
2022/07/14 11:20:00;;;;;;;2.63;0.90;;;;;;;;;;4929248;28;20034;-68
2022/07/14 11:22:25;;;;;;;3.30;0.70;;;;;;;;;;4935582;28;20209;-69
2022/07/14 11:24:58;;;;;;;4.38;0.80;;;;;;;;;;4930416;28;20558;-68
2022/07/14 11:27:29;;;;;;;5.68;0.80;;;;;;;;;;4939074;28;20933;-69
2022/07/14 11:29:58;;;;;;;3.83;0.68;;;;;;;;;;4928404;28;20058;-69
2022/07/14 11:32:31;;;;;;;2.88;0.80;;;;;;;;;;4931156;28;20049;-69
2022/07/14 11:37:57;;;;;;;4.15;0.70;;;;;;;;;;4931125;28;20369;-69
2022/07/14 11:40:44;;;;;;;3.72;0.70;;;;;;;;;;4929970;28;20679;-69
2022/07/14 11:43:28;;;;;;;4.07;0.60;;;;;;;;;;4926618;28;20597;-68
2022/07/14 11:45:58;;;;;;;3.75;0.80;;;;;;;;;;4928740;28;20065;-67
2022/07/14 11:48:27;;;;;;;5.10;0.75;;;;;;;;;;4942569;28;20480;-68
2022/07/14 11:51:00;;;;;;;3.88;0.90;;;;;;;;;;4929210;28;20560;-68
2022/07/14 11:53:27;;;;;;;3.63;0.77;;;;;;;;;;4929772;28;22233;-69
2022/07/14 11:55:54;;;;;;;3.28;0.57;;;;;;;;;;4933974;28;20031;-70
2022/07/14 11:58:22;;;;;;;2.50;0.70;;;;;;;;;;4934507;28;20035;-68
2022/07/14 12:00:57;;;;;;;3.88;0.60;;;;;;;;;;4934621;28;20034;-68
2022/07/14 12:03:25;;;;;;;3.35;0.65;;;;;;;;;;4934634;28;20072;-69
2022/07/14 12:05:55;;;;;;;2.40;0.60;;;;;;;;;;4930731;28;20108;-69
2022/07/14 12:08:27;;;;;;;3.40;0.70;;;;;;;;;;4934584;28;20998;-68
2022/07/14 12:10:52;;;;;;;2.67;0.70;;;;;;;;;;4933895;28;20126;-72
2022/07/14 12:13:18;;;;;;;1.67;0.50;;;;;;;;;;4937003;28;20037;-70
2022/07/14 12:15:44;;;;;;;4.15;0.70;;;;;;;;;;4930176;28;20264;-72
2022/07/14 12:18:10;;;;;;;4.18;0.70;;;;;;;;;;4944910;28;20479;-71
2022/07/14 12:20:40;;;;;;;3.00;0.60;;;;;;;;;;4928895;28;20045;-69
2022/07/14 12:23:06;;;;;;;3.65;0.50;;;;;;;;;;4942795;28;20407;-69
2022/07/14 12:25:32;;;;;;;3.40;0.60;;;;;;;;;;4929718;28;20038;-70
2022/07/14 12:28:01;;;;;;;2.95;0.52;;;;;;;;;;4934021;28;22168;-70
2022/07/14 12:30:45;;;;;;;3.95;0.77;;;;;;;;;;4936058;28;20274;-71
2022/07/14 12:33:19;;;;;;;3.55;0.70;;;;;;;;;;4934563;28;21058;-69
2022/07/14 12:35:46;;;;;;;3.33;0.60;;;;;;;;;;4934029;28;20746;-71
2022/07/14 12:38:12;;;;;;;1.90;0.60;;;;;;;;;;4947439;28;20191;-71
2022/07/14 12:40:37;;;;;;;4.85;0.60;;;;;;;;;;4933290;28;20994;-70
2022/07/14 12:43:03;;;;;;;3.78;0.73;;;;;;;;;;4933239;28;20065;-71
2022/07/14 12:45:29;;;;;;;3.45;0.80;;;;;;;;;;4936745;28;20047;-69
2022/07/14 12:48:03;;;;;;;2.63;0.50;;;;;;;;;;4930932;28;20360;-72
2022/07/14 12:50:29;;;;;;;2.38;0.65;;;;;;;;;;4930623;28;20431;-70
2022/07/14 12:52:57;;;;;;;3.05;0.60;;;;;;;;;;4932993;28;20038;-70
2022/07/14 12:55:49;;;;;;;3.17;0.70;;;;;;;;;;4937454;28;22443;-69
2022/07/14 12:58:15;;;;;;;;;;;;;;;;;;4929048;28;20039;-69
2022/07/14 13:00:44;;;;;;;3.15;0.75;;;;;;;;;;4932334;28;20686;-71
2022/07/14 13:03:10;;;;;;;3.75;0.70;;;;;;;;;;4933355;28;20360;-70
2022/07/14 13:05:38;;;;;;;5.88;0.80;;;;;;;;;;4933246;28;20043;-69
2022/07/14 13:08:39;;;;;;;3.40;0.80;;;;;;;;;;4944385;28;20038;-70
2022/07/14 13:11:08;;;;;;;4.10;0.95;;;;;;;;;;4902068;28;20313;-71
2022/07/14 13:13:37;;;;;;;3.13;0.55;;;;;;;;;;4926161;28;20617;-69
2022/07/14 13:16:14;;;;;;;3.80;0.75;;;;;;;;;;4930808;28;20101;-68
2022/07/14 13:18:59;;;;;;;4.10;0.70;;;;;;;;;;4932111;28;20503;-69
2022/07/14 13:21:44;;;;;;;3.85;0.73;;;;;;;;;;4930442;28;20648;-71
2022/07/14 13:24:23;;;;;;;3.85;0.85;;;;;;;;;;4932942;28;20050;-70
2022/07/14 13:27:08;;;;;;;2.55;0.50;;;;;;;;;;4931466;28;20034;-69
2022/07/14 13:29:35;;;;;;;2.00;0.50;;;;;;;;;;4931465;28;20034;-66
2022/07/14 13:32:01;;;;;;;5.70;1.08;;;;;;;;;;4928911;28;20589;-67
2022/07/14 13:34:27;;;;;;;5.78;0.70;;;;;;;;;;4926383;28;20095;-67
2022/07/14 13:36:54;;;;;;;2.50;0.70;;;;;;;;;;4928172;28;20791;-66
2022/07/14 13:39:19;;;;;;;2.83;0.57;;;;;;;;;;4938203;28;20038;-66
2022/07/14 13:41:45;;;;;;;3.42;0.88;;;;;;;;;;4926927;28;20073;-67
2022/07/14 13:44:10;;;;;;;4.50;0.68;;;;;;;;;;4928173;28;20297;-67
2022/07/14 13:46:36;;;;;;;4.22;0.77;;;;;;;;;;4927788;28;20157;-65
2022/07/14 13:49:02;;;;;;;3.58;0.90;;;;;;;;;;4928145;28;20353;-67
2022/07/14 13:54:11;;;;;;;2.08;0.60;;;;;;;;;;4955250;28;20550;-70
2022/07/14 13:56:40;;;;;;;2.40;0.75;;;;;;;;;;4949413;28;20157;-71
2022/07/14 13:59:07;;;;;;;3.85;0.75;;;;;;;;;;4950623;28;20042;-69
2022/07/14 14:01:32;;;;;;;2.78;0.80;;;;;;;;;;4950402;28;20037;-71
2022/07/14 14:03:58;;;;;;;5.97;0.90;;;;;;;;;;4951739;28;20121;-71
2022/07/14 14:06:23;;;;;;;3.15;0.63;;;;;;;;;;4946106;28;20038;-73
2022/07/14 14:08:48;;;;;;;5.57;0.60;;;;;;;;;;4939753;28;20034;-68
2022/07/14 14:11:16;;;;;;;8.05;1.00;;;;;;;;;;4934187;28;20042;-71
2022/07/14 14:13:44;;;;;;;9.15;1.10;;;;;;;;;;4936472;28;20856;-75
2022/07/14 14:16:10;;;;;;;9.25;1.02;;;;;;;;;;4918989;28;20031;-71
2022/07/14 14:18:41;;;;;;;6.13;1.23;;;;;;;;;;4934641;28;20037;-71
2022/07/14 14:21:08;;;;;;;6.53;1.50;;;;;;;;;;4933399;28;20587;-69
2022/07/14 14:23:34;;;;;;;10.75;1.27;;;;;;;;;;4933291;28;22352;-70
2022/07/14 14:26:00;;;;;;;4.32;0.73;;;;;;;;;;4938153;28;20037;-70
2022/07/14 14:28:26;;;;;;;5.93;1.10;;;;;;;;;;4950531;28;20212;-71
2022/07/14 14:30:52;;;;;;;5.13;1.00;;;;;;;;;;4945423;28;20054;-70
2022/07/14 14:33:17;;;;;;;7.57;0.93;;;;;;;;;;4942314;28;20384;-72
2022/07/14 14:35:45;;;;;;;10.43;1.35;;;;;;;;;;4937140;28;20094;-71
2022/07/14 14:38:10;;;;;;;8.93;1.23;;;;;;;;;;4934218;28;20031;-71
2022/07/14 14:40:36;;;;;;;10.27;1.27;;;;;;;;;;4939165;28;20058;-69
2022/07/14 14:43:02;;;;;;;5.15;1.30;;;;;;;;;;4934162;28;20828;-69
2022/07/14 14:45:28;;;;;;;4.40;1.08;;;;;;;;;;4931948;28;20141;-72
2022/07/14 14:47:53;;;;;;;7.55;1.30;;;;;;;;;;4934419;28;20053;-67
2022/07/14 14:50:18;;;;;;;5.38;1.10;;;;;;;;;;4933283;28;20248;-74
2022/07/14 14:52:48;;;;;;;6.53;1.42;;;;;;;;;;4949072;28;20035;-71
2022/07/14 14:55:14;;;;;;;7.43;1.40;;;;;;;;;;4931589;28;20829;-69
2022/07/14 14:57:39;;;;;;;8.77;1.80;;;;;;;;;;4934314;28;20043;-70
2022/07/14 15:00:07;;;;;;;7.63;1.38;;;;;;;;;;4932677;28;20045;-72
2022/07/14 15:02:34;;;;;;;12.82;1.88;;;;;;;;;;4931957;28;20042;-68
2022/07/14 15:05:00;;;;;;;12.52;1.63;;;;;;;;;;4931518;28;20046;-68